Time;durP1;ratioP1;P1;durP2;ratioP2;P2;SDS_P1;SDS_P2;PMS_P1;PMS_P2;Temp;Humidity;BMP_temperature;BMP_pressure;BME280_temperature;BME280_humidity;BME280_pressure;Samples;Min_cycle;Max_cycle;Signal;HPM_P1;HPM_P2
2022/04/06 00:02:32;;;;;;;16.10;7.53;;;6.60;99.90;;;;;;5038158;28;20213;-62
2022/04/06 00:05:21;;;;;;;10.73;6.80;;;6.70;99.90;;;;;;5048986;28;20322;-62
2022/04/06 00:08:10;;;;;;;11.53;7.77;;;6.60;99.90;;;;;;5031862;28;20593;-62
2022/04/06 00:10:59;;;;;;;14.50;8.50;;;6.60;99.90;;;;;;5040760;28;20229;-62
2022/04/06 00:13:48;;;;;;;12.13;8.13;;;6.70;99.90;;;;;;5044765;28;20217;-61
2022/04/06 00:16:37;;;;;;;12.83;7.57;;;6.70;99.90;;;;;;5047218;28;20347;-62
2022/04/06 00:19:27;;;;;;;14.67;8.00;;;6.70;99.90;;;;;;5033546;28;20602;-61
2022/04/06 00:22:15;;;;;;;15.57;8.47;;;6.70;99.90;;;;;;5052820;28;20228;-63
2022/04/06 00:25:05;;;;;;;14.40;8.40;;;6.70;99.90;;;;;;5040492;28;20227;-61
2022/04/06 00:27:54;;;;;;;11.83;8.67;;;6.80;99.90;;;;;;5038836;28;21021;-62
2022/04/06 00:30:42;;;;;;;12.13;7.93;;;6.70;99.90;;;;;;5049236;28;21026;-61
2022/04/06 00:33:31;;;;;;;16.33;9.50;;;6.70;99.90;;;;;;5045259;28;20236;-61
2022/04/06 00:36:21;;;;;;;13.87;8.70;;;6.80;99.90;;;;;;5050249;28;20308;-61
2022/04/06 00:39:10;;;;;;;14.40;9.10;;;6.80;99.90;;;;;;5050602;28;20698;-62
2022/04/06 00:41:58;;;;;;;16.33;10.13;;;6.90;99.90;;;;;;5028731;28;20228;-63
2022/04/06 00:44:47;;;;;;;14.63;9.37;;;6.90;99.90;;;;;;5048543;28;20221;-60
2022/04/06 00:47:36;;;;;;;16.63;9.10;;;6.90;99.90;;;;;;5045362;28;20221;-62
2022/04/06 00:50:25;;;;;;;14.10;9.43;;;6.90;99.90;;;;;;5035761;28;20573;-61
2022/04/06 00:53:15;;;;;;;14.40;10.23;;;7.00;99.90;;;;;;5044017;28;20212;-60
2022/04/06 00:56:08;;;;;;;15.47;10.50;;;6.90;99.90;;;;;;5033265;28;20227;-61
2022/04/06 00:59:00;;;;;;;15.07;9.70;;;6.90;99.90;;;;;;5046709;28;20464;-59
2022/04/06 01:01:50;;;;;;;12.97;9.50;;;7.00;99.90;;;;;;5038917;28;20311;-61
2022/04/06 01:04:39;;;;;;;16.97;10.27;;;7.00;99.90;;;;;;5037755;28;20217;-61
2022/04/06 01:07:28;;;;;;;14.83;9.83;;;7.00;99.90;;;;;;5026208;28;20225;-60
2022/04/06 01:10:19;;;;;;;14.70;9.83;;;7.00;99.90;;;;;;5039817;28;20230;-60
2022/04/06 01:13:08;;;;;;;13.90;9.83;;;7.00;99.90;;;;;;5020360;28;20216;-60
2022/04/06 01:15:57;;;;;;;13.50;9.57;;;7.00;99.90;;;;;;5050517;28;20303;-61
2022/04/06 01:18:49;;;;;;;15.53;10.20;;;7.00;99.90;;;;;;5035838;28;20227;-61
2022/04/06 01:21:37;;;;;;;15.87;10.20;;;7.00;99.90;;;;;;5050143;28;20236;-62
2022/04/06 01:24:28;;;;;;;12.63;9.33;;;7.00;99.90;;;;;;5046811;28;20220;-62
2022/04/06 01:27:20;;;;;;;16.77;10.50;;;7.00;99.90;;;;;;5049544;28;20227;-62
2022/04/06 01:30:10;;;;;;;14.93;10.40;;;7.00;99.90;;;;;;5047083;28;20216;-62
2022/04/06 01:32:58;;;;;;;16.70;10.30;;;7.00;99.90;;;;;;5045403;28;20212;-62
2022/04/06 01:35:49;;;;;;;17.40;11.17;;;7.10;99.90;;;;;;5048642;28;20583;-63
2022/04/06 01:38:37;;;;;;;15.87;11.10;;;7.00;99.90;;;;;;5027436;28;20958;-63
2022/04/06 01:41:32;;;;;;;19.70;11.33;;;7.10;99.90;;;;;;5049877;28;20343;-62
2022/04/06 01:44:21;;;;;;;14.60;10.90;;;7.10;99.90;;;;;;5036116;28;20887;-62
2022/04/06 01:47:10;;;;;;;16.00;11.53;;;7.00;99.90;;;;;;5043722;28;20220;-64
2022/04/06 01:53:05;;;;;;;19.80;11.60;;;7.10;99.90;;;;;;5047492;28;20236;-62
2022/04/06 01:55:54;;;;;;;16.33;11.80;;;6.90;99.90;;;;;;5047831;28;20624;-62
2022/04/06 01:58:45;;;;;;;17.63;11.43;;;6.90;99.90;;;;;;5050255;28;20228;-63
2022/04/06 02:01:34;;;;;;;20.23;12.80;;;6.90;99.90;;;;;;5037554;28;20221;-63
2022/04/06 02:04:23;;;;;;;18.03;11.63;;;6.90;99.90;;;;;;5045788;28;20224;-63
2022/04/06 02:07:13;;;;;;;18.17;11.77;;;7.00;99.90;;;;;;5048580;28;20687;-62
2022/04/06 02:10:02;;;;;;;18.80;11.80;;;7.00;99.90;;;;;;5029776;28;21047;-63
2022/04/06 02:12:51;;;;;;;15.97;12.50;;;6.90;99.90;;;;;;5047304;28;20442;-61
2022/04/06 02:15:41;;;;;;;17.77;12.60;;;7.00;99.90;;;;;;5049523;28;20379;-60
2022/04/06 02:18:30;;;;;;;16.93;12.00;;;7.00;99.90;;;;;;5051501;28;20219;-61
2022/04/06 02:21:22;;;;;;;15.83;11.80;;;7.00;99.90;;;;;;5047171;28;20220;-60
2022/04/06 02:24:10;;;;;;;17.77;13.27;;;7.10;99.90;;;;;;5038020;28;20543;-61
2022/04/06 02:26:59;;;;;;;19.23;12.80;;;7.00;99.90;;;;;;5040346;28;20231;-61
2022/04/06 02:29:48;;;;;;;18.10;12.10;;;7.00;99.90;;;;;;5037724;28;20551;-61
2022/04/06 02:32:42;;;;;;;19.20;13.13;;;7.00;99.90;;;;;;5040821;28;20232;-62
2022/04/06 02:35:30;;;;;;;18.03;12.30;;;6.90;99.90;;;;;;5041072;28;20706;-61
2022/04/06 02:38:19;;;;;;;21.17;13.03;;;7.00;99.90;;;;;;5035965;28;20273;-63
2022/04/06 02:41:08;;;;;;;17.00;12.50;;;7.00;99.90;;;;;;5051719;28;20532;-63
2022/04/06 02:43:56;;;;;;;19.50;12.67;;;7.00;99.90;;;;;;5053217;28;20231;-63
2022/04/06 02:46:46;;;;;;;21.30;13.30;;;7.00;99.90;;;;;;5039351;28;20765;-64
2022/04/06 02:49:36;;;;;;;16.70;11.20;;;7.00;99.90;;;;;;5038457;28;20335;-65
2022/04/06 02:52:25;;;;;;;17.03;11.77;;;7.00;99.90;;;;;;5051025;28;20228;-64
2022/04/06 02:55:14;;;;;;;21.10;13.90;;;7.00;99.90;;;;;;5032643;28;20213;-64
2022/04/06 02:58:02;;;;;;;18.53;12.93;;;6.90;99.90;;;;;;5041188;28;20229;-63
2022/04/06 03:00:51;;;;;;;17.50;11.73;;;6.80;99.90;;;;;;5029850;28;20220;-61
2022/04/06 03:03:39;;;;;;;17.30;12.03;;;6.50;99.90;;;;;;5019747;28;20252;-64
2022/04/06 03:06:30;;;;;;;20.73;12.53;;;6.50;99.90;;;;;;5035471;28;20746;-63
2022/04/06 03:09:18;;;;;;;19.60;12.73;;;6.50;99.90;;;;;;5028896;28;20220;-63
2022/04/06 03:12:11;;;;;;;25.03;14.67;;;6.60;99.90;;;;;;5037967;28;20234;-63
2022/04/06 03:14:59;;;;;;;21.63;14.20;;;6.40;99.90;;;;;;5041122;28;20233;-62
2022/04/06 03:17:48;;;;;;;21.30;14.53;;;6.40;99.90;;;;;;5041477;28;20220;-62
2022/04/06 03:20:40;;;;;;;23.80;15.63;;;6.20;99.90;;;;;;5029211;28;20348;-63
2022/04/06 03:23:31;;;;;;;25.30;15.33;;;6.20;99.90;;;;;;5031110;28;21073;-63
2022/04/06 03:26:23;;;;;;;23.43;14.83;;;6.20;99.90;;;;;;5033080;28;20221;-61
2022/04/06 03:29:12;;;;;;;23.07;14.47;;;6.10;99.90;;;;;;5041493;28;20248;-61
2022/04/06 03:32:00;;;;;;;22.10;14.40;;;6.10;99.90;;;;;;5053339;28;20220;-62
2022/04/06 03:34:49;;;;;;;21.70;13.63;;;6.20;99.90;;;;;;5050379;28;20224;-63
2022/04/06 03:37:38;;;;;;;21.63;13.60;;;6.00;99.90;;;;;;5052157;28;20232;-64
2022/04/06 03:40:32;;;;;;;21.80;13.33;;;6.00;99.90;;;;;;5051957;28;20228;-62
2022/04/06 03:43:21;;;;;;;21.77;12.77;;;6.00;99.90;;;;;;5052866;28;20234;-62
2022/04/06 03:46:10;;;;;;;22.07;12.40;;;6.00;99.90;;;;;;5050230;28;20221;-62
2022/04/06 03:48:59;;;;;;;17.90;12.13;;;6.00;99.90;;;;;;5053009;28;20335;-63
2022/04/06 03:51:47;;;;;;;17.27;11.73;;;6.00;99.90;;;;;;5052964;28;20552;-63
2022/04/06 03:54:36;;;;;;;17.67;12.00;;;6.00;99.90;;;;;;5052103;28;20235;-63
2022/04/06 03:57:26;;;;;;;18.83;12.07;;;6.10;99.90;;;;;;5057220;28;20590;-62
2022/04/06 04:00:15;;;;;;;16.80;11.60;;;6.00;99.90;;;;;;5031805;28;20233;-61
2022/04/06 04:03:05;;;;;;;16.70;11.43;;;6.10;99.90;;;;;;5044390;28;20338;-62
2022/04/06 04:05:54;;;;;;;20.43;13.27;;;6.00;99.90;;;;;;5049016;28;20296;-64
2022/04/06 04:08:43;;;;;;;19.53;12.97;;;6.00;99.90;;;;;;5055639;28;20229;-64
2022/04/06 04:11:32;;;;;;;24.53;16.10;;;5.90;99.90;;;;;;5055124;28;20224;-62
2022/04/06 04:14:21;;;;;;;23.67;16.83;;;6.00;99.90;;;;;;5036733;28;20777;-63
2022/04/06 04:17:11;;;;;;;19.63;13.30;;;5.90;99.90;;;;;;5032910;28;20216;-63
2022/04/06 04:19:59;;;;;;;25.43;14.37;;;6.00;99.90;;;;;;5039684;28;20225;-63
2022/04/06 04:22:52;;;;;;;26.10;14.87;;;5.90;99.90;;;;;;5033051;28;20606;-62
2022/04/06 04:25:44;;;;;;;24.20;15.47;;;6.00;99.90;;;;;;5029575;28;20234;-62
2022/04/06 04:28:32;;;;;;;24.00;17.00;;;6.00;99.90;;;;;;5034143;28;20217;-61
2022/04/06 04:31:22;;;;;;;23.57;15.73;;;6.10;99.90;;;;;;5040391;28;20225;-62
2022/04/06 04:34:11;;;;;;;24.87;16.60;;;6.00;99.90;;;;;;5035186;28;20221;-62
2022/04/06 04:36:59;;;;;;;26.17;16.33;;;6.10;99.90;;;;;;5050394;28;20224;-63
2022/04/06 04:39:48;;;;;;;23.07;15.83;;;6.00;99.90;;;;;;5041264;28;20228;-62
2022/04/06 04:42:37;;;;;;;33.47;17.87;;;6.10;99.90;;;;;;5051257;28;20243;-64
2022/04/06 04:45:25;;;;;;;26.07;17.37;;;6.10;99.90;;;;;;5049053;28;20664;-63
2022/04/06 04:48:15;;;;;;;25.53;17.57;;;6.00;99.90;;;;;;5048639;28;20221;-62
2022/04/06 04:51:04;;;;;;;28.00;18.40;;;6.00;99.90;;;;;;5053184;28;20224;-62
2022/04/06 04:53:54;;;;;;;27.23;18.13;;;5.90;99.90;;;;;;5037984;28;20273;-62
2022/04/06 04:56:43;;;;;;;28.37;18.03;;;6.00;99.90;;;;;;5036145;28;20236;-61
2022/04/06 04:59:32;;;;;;;28.33;18.93;;;6.10;99.90;;;;;;5054863;28;20224;-65
2022/04/06 05:02:20;;;;;;;32.43;18.30;;;6.00;99.90;;;;;;5045958;28;20567;-62
2022/04/06 05:05:11;;;;;;;24.93;18.13;;;6.00;99.90;;;;;;5048586;28;20233;-62
2022/04/06 05:08:00;;;;;;;28.10;18.63;;;6.00;99.90;;;;;;5049565;28;20237;-62
2022/04/06 05:10:49;;;;;;;25.57;17.23;;;6.00;99.90;;;;;;5034324;28;20225;-63
2022/04/06 05:13:38;;;;;;;19.13;14.90;;;6.10;99.90;;;;;;5040611;28;20239;-63
2022/04/06 05:16:27;;;;;;;19.13;14.53;;;6.10;99.90;;;;;;5050170;28;20225;-62
2022/04/06 05:19:15;;;;;;;17.30;13.70;;;6.20;99.90;;;;;;5048969;28;20274;-62
2022/04/06 05:22:07;;;;;;;20.80;14.50;;;6.10;99.90;;;;;;5041868;28;20232;-63
2022/04/06 05:24:55;;;;;;;17.70;13.20;;;6.20;99.90;;;;;;5040332;28;20290;-62
2022/04/06 05:27:45;;;;;;;20.90;13.73;;;6.20;99.90;;;;;;5035986;28;20355;-62
2022/04/06 05:30:34;;;;;;;19.57;13.47;;;6.20;99.90;;;;;;5050726;28;20217;-62
2022/04/06 05:33:22;;;;;;;17.73;12.17;;;6.10;99.90;;;;;;5034518;28;20243;-63
2022/04/06 05:36:12;;;;;;;16.23;12.70;;;6.00;99.90;;;;;;5038147;28;20234;-63
2022/04/06 05:39:02;;;;;;;18.13;13.23;;;5.90;99.90;;;;;;5049814;28;20269;-62
2022/04/06 05:41:51;;;;;;;17.63;12.90;;;6.00;99.90;;;;;;5051883;28;20261;-61
2022/04/06 05:44:39;;;;;;;19.10;13.07;;;6.00;99.90;;;;;;5051840;28;20247;-63
2022/04/06 05:47:28;;;;;;;21.63;14.10;;;6.00;99.90;;;;;;5033091;28;20243;-61
2022/04/06 05:50:17;;;;;;;18.50;13.20;;;6.00;99.90;;;;;;5038824;28;20732;-61
2022/04/06 05:53:06;;;;;;;20.30;13.80;;;6.10;99.90;;;;;;5040207;28;20232;-62
2022/04/06 05:56:00;;;;;;;19.60;14.03;;;6.10;99.90;;;;;;5038813;28;20224;-63
2022/04/06 05:58:49;;;;;;;21.47;14.40;;;6.10;99.90;;;;;;5053676;28;20252;-62
2022/04/06 06:01:37;;;;;;;23.00;15.20;;;6.10;99.90;;;;;;5049063;28;20602;-62
2022/04/06 06:04:26;;;;;;;18.70;13.27;;;6.10;99.90;;;;;;5051319;28;20229;-64
2022/04/06 06:07:15;;;;;;;18.73;13.83;;;6.00;99.90;;;;;;5038659;28;20233;-64
2022/04/06 06:10:04;;;;;;;16.23;13.33;;;5.90;99.90;;;;;;5039180;28;20224;-63
2022/04/06 06:12:54;;;;;;;19.50;13.60;;;5.90;99.90;;;;;;5041851;28;20217;-63
2022/04/06 06:15:43;;;;;;;18.00;14.07;;;6.00;99.90;;;;;;5053925;28;20769;-62
2022/04/06 06:18:32;;;;;;;17.43;13.80;;;6.00;99.90;;;;;;5039390;28;20221;-62
2022/04/06 06:21:21;;;;;;;19.03;14.33;;;6.10;99.90;;;;;;5053689;28;20224;-62
2022/04/06 06:24:10;;;;;;;17.23;13.20;;;6.20;99.90;;;;;;5024313;28;20236;-62
2022/04/06 06:26:59;;;;;;;20.17;14.07;;;6.10;99.90;;;;;;5040032;28;20227;-62
2022/04/06 06:29:49;;;;;;;18.57;14.10;;;6.10;99.90;;;;;;5055322;28;20228;-61
2022/04/06 06:32:38;;;;;;;19.13;14.60;;;6.10;99.90;;;;;;5056252;28;20794;-63
2022/04/06 06:35:27;;;;;;;16.30;12.73;;;6.20;99.90;;;;;;5040951;28;20250;-61
2022/04/06 06:38:16;;;;;;;15.03;11.63;;;5.90;99.90;;;;;;5055211;28;20907;-62
2022/04/06 06:41:05;;;;;;;15.73;11.53;;;5.80;99.90;;;;;;5048145;28;20213;-63
2022/04/06 06:43:54;;;;;;;19.43;11.57;;;5.80;99.90;;;;;;5038312;28;20244;-64
2022/04/06 06:46:44;;;;;;;19.10;13.17;;;5.80;99.90;;;;;;5049439;28;20232;-63
2022/04/06 06:49:33;;;;;;;17.63;10.97;;;5.80;99.90;;;;;;5057377;28;20362;-64
2022/04/06 06:52:22;;;;;;;17.43;12.40;;;5.70;99.90;;;;;;5055934;28;20519;-60
2022/04/06 06:55:11;;;;;;;15.83;10.80;;;5.70;99.90;;;;;;5038752;28;20243;-60
2022/04/06 06:57:59;;;;;;;15.97;12.33;;;5.60;99.90;;;;;;5055275;28;20234;-61
2022/04/06 07:00:48;;;;;;;15.60;11.87;;;5.70;99.90;;;;;;5043454;28;20220;-60
2022/04/06 07:03:38;;;;;;;13.80;11.30;;;5.80;99.90;;;;;;5044182;28;20228;-62
2022/04/06 07:06:27;;;;;;;15.00;10.67;;;5.90;99.90;;;;;;5055132;28;20724;-61
2022/04/06 07:09:16;;;;;;;15.80;10.97;;;5.80;99.90;;;;;;5053574;28;20267;-62
2022/04/06 07:12:06;;;;;;;18.10;12.80;;;5.60;99.90;;;;;;5050684;28;20571;-62
2022/04/06 07:14:55;;;;;;;15.40;11.23;;;5.80;99.90;;;;;;5053060;28;20232;-60
2022/04/06 07:17:43;;;;;;;16.37;11.47;;;5.80;99.90;;;;;;5050357;28;20217;-66
2022/04/06 07:20:37;;;;;;;16.73;11.47;;;5.90;99.90;;;;;;5039985;28;20220;-61
2022/04/06 07:23:26;;;;;;;19.53;12.13;;;5.80;99.90;;;;;;5041351;28;20259;-61
2022/04/06 07:26:16;;;;;;;18.10;12.33;;;6.10;99.90;;;;;;5054575;28;20323;-60
2022/04/06 07:30:57;;;;;;;19.10;13.40;;;6.20;99.90;;;;;;5077388;27;20617;-60
2022/04/06 07:33:51;;;;;;;16.43;12.00;;;6.30;99.90;;;;;;5050281;28;20525;-58
2022/04/06 07:36:40;;;;;;;17.80;12.10;;;6.20;99.90;;;;;;5057543;28;20217;-60
2022/04/06 07:39:29;;;;;;;16.83;12.47;;;6.30;99.90;;;;;;5053370;28;20246;-62
2022/04/06 07:42:17;;;;;;;19.57;12.80;;;6.30;99.90;;;;;;5065618;28;20356;-60
2022/04/06 07:45:08;;;;;;;18.80;13.17;;;6.40;99.90;;;;;;5044043;28;20224;-61
2022/04/06 07:47:58;;;;;;;21.80;13.07;;;6.40;99.90;;;;;;5053016;28;20729;-61
2022/04/06 07:50:47;;;;;;;17.43;13.67;;;6.50;99.90;;;;;;5053787;28;20299;-62
2022/04/06 07:53:35;;;;;;;19.77;13.03;;;6.50;99.90;;;;;;5050619;28;20227;-61
2022/04/06 07:56:24;;;;;;;17.83;13.77;;;6.70;99.90;;;;;;5085197;27;20234;-60
2022/04/06 07:59:12;;;;;;;20.07;13.27;;;6.70;99.90;;;;;;5090527;28;20363;-62
2022/04/06 08:02:01;;;;;;;22.80;14.90;;;6.80;99.90;;;;;;5076572;28;20226;-59
2022/04/06 08:04:51;;;;;;;21.80;15.17;;;6.60;99.90;;;;;;5094539;28;20264;-60
2022/04/06 08:07:43;;;;;;;22.07;16.03;;;6.50;99.90;;;;;;5089285;28;20263;-60
2022/04/06 08:10:32;;;;;;;22.80;17.90;;;6.60;99.90;;;;;;5059630;28;20231;-57
2022/04/06 08:13:26;;;;;;;27.63;19.27;;;6.30;99.90;;;;;;5093388;28;20215;-60
2022/04/06 08:16:16;;;;;;;29.77;19.57;;;6.30;99.90;;;;;;5078664;28;20254;-60
2022/04/06 08:19:05;;;;;;;28.03;18.57;;;6.40;99.90;;;;;;5084469;27;20234;-60
2022/04/06 08:21:56;;;;;;;26.03;19.33;;;6.30;99.90;;;;;;5085291;28;20226;-59
2022/04/06 08:24:44;;;;;;;23.37;18.20;;;6.10;99.90;;;;;;5092585;28;20231;-59
2022/04/06 08:27:36;;;;;;;24.57;18.70;;;6.20;99.90;;;;;;5094733;28;20311;-58
2022/04/06 08:30:24;;;;;;;25.43;18.37;;;6.30;99.90;;;;;;5093254;28;20215;-59
2022/04/06 08:33:13;;;;;;;27.67;18.37;;;6.30;99.90;;;;;;5080903;28;21856;-58
2022/04/06 08:36:06;;;;;;;28.53;20.00;;;6.30;99.90;;;;;;5073417;28;20309;-60
2022/04/06 08:38:57;;;;;;;26.53;20.07;;;6.20;99.90;;;;;;5068318;28;20227;-59
2022/04/06 08:41:45;;;;;;;28.57;19.63;;;6.30;99.90;;;;;;5058230;28;20346;-59
2022/04/06 08:44:34;;;;;;;27.20;19.47;;;6.30;99.90;;;;;;5074498;28;20811;-60
2022/04/06 08:47:23;;;;;;;28.03;19.50;;;6.20;99.90;;;;;;5060469;28;20228;-60
2022/04/06 08:50:11;;;;;;;24.43;19.20;;;6.30;99.90;;;;;;5071493;28;20227;-58
2022/04/06 08:53:02;;;;;;;25.80;18.10;;;6.20;99.90;;;;;;5073550;28;20223;-58
2022/04/06 08:55:52;;;;;;;23.80;17.20;;;6.30;99.90;;;;;;5064001;28;20215;-59
2022/04/06 08:58:41;;;;;;;24.10;17.50;;;6.40;99.90;;;;;;5078235;28;20235;-61
2022/04/06 09:01:33;;;;;;;27.37;17.33;;;6.40;99.90;;;;;;5075354;28;21554;-59
2022/04/06 09:04:23;;;;;;;22.23;16.90;;;6.40;99.90;;;;;;5075747;28;20304;-60
2022/04/06 09:07:24;;;;;;;20.97;14.07;;;6.40;99.90;;;;;;5077218;28;20238;-60
2022/04/06 09:10:14;;;;;;;22.07;15.27;;;6.40;99.90;;;;;;5040814;28;20228;-57
2022/04/06 09:13:12;;;;;;;19.30;13.73;;;6.40;99.90;;;;;;5055202;28;20227;-58
2022/04/06 09:16:02;;;;;;;21.10;15.80;;;6.30;99.90;;;;;;5072290;28;20484;-58
2022/04/06 09:18:50;;;;;;;18.57;14.40;;;6.40;99.90;;;;;;5066271;28;20229;-59
2022/04/06 09:21:40;;;;;;;22.70;15.30;;;6.50;99.90;;;;;;5077907;28;20746;-59
2022/04/06 09:24:29;;;;;;;20.33;15.27;;;6.50;99.90;;;;;;5078998;28;20231;-58
2022/04/06 09:27:18;;;;;;;18.93;14.60;;;6.50;99.90;;;;;;5079539;28;20245;-58
2022/04/06 09:30:10;;;;;;;23.27;16.33;;;6.60;99.90;;;;;;5081810;28;20547;-59
2022/04/06 09:33:04;;;;;;;20.80;15.77;;;6.60;99.90;;;;;;5051729;28;20231;-59
2022/04/06 09:35:55;;;;;;;20.50;15.77;;;6.40;99.90;;;;;;5058834;28;20231;-59
2022/04/06 09:38:47;;;;;;;19.27;15.57;;;6.50;99.90;;;;;;5058590;28;21043;-59
2022/04/06 09:41:59;;;;;;;23.60;17.27;;;6.50;99.90;;;;;;5059938;28;20230;-60
2022/04/06 09:47:58;;;;;;;22.90;16.73;;;6.40;99.90;;;;;;5079944;28;20228;-59
2022/04/06 09:50:55;;;;;;;25.63;17.90;;;6.40;99.90;;;;;;5079532;28;20226;-59
2022/04/06 09:53:46;;;;;;;25.30;17.27;;;6.40;99.90;;;;;;5078279;28;20216;-57
2022/04/06 09:56:36;;;;;;;19.93;16.07;;;6.50;99.90;;;;;;5082079;28;20223;-61
2022/04/06 09:59:29;;;;;;;23.57;17.53;;;6.50;99.90;;;;;;5079675;28;20231;-60
2022/04/06 10:02:18;;;;;;;21.03;15.97;;;6.50;99.90;;;;;;5075357;28;20291;-59
2022/04/06 10:05:15;;;;;;;22.60;17.23;;;6.50;99.90;;;;;;5053645;28;20594;-58
2022/04/06 10:08:05;;;;;;;20.87;15.80;;;6.60;99.90;;;;;;5059926;28;20235;-59
2022/04/06 10:10:58;;;;;;;23.13;16.67;;;6.60;99.90;;;;;;5058972;28;20218;-58
2022/04/06 10:13:48;;;;;;;21.17;16.17;;;6.70;99.90;;;;;;5044025;28;20228;-59
2022/04/06 10:16:46;;;;;;;22.07;16.10;;;6.70;99.90;;;;;;5041630;28;20263;-59
2022/04/06 10:19:43;;;;;;;20.60;15.90;;;6.70;99.90;;;;;;5056207;28;20232;-59
2022/04/06 10:22:44;;;;;;;21.60;16.50;;;6.60;99.90;;;;;;5058442;28;20443;-58
2022/04/06 10:25:42;;;;;;;24.27;16.57;;;6.60;99.90;;;;;;5078663;28;20226;-57
2022/04/06 10:28:34;;;;;;;20.90;16.23;;;6.70;99.90;;;;;;5080478;28;20207;-59
2022/04/06 10:31:27;;;;;;;22.70;18.00;;;6.80;99.90;;;;;;5080167;28;20234;-59
2022/04/06 10:34:24;;;;;;;23.73;17.67;;;6.90;99.90;;;;;;5048502;28;20219;-58
2022/04/06 10:37:15;;;;;;;24.87;18.77;;;7.00;99.90;;;;;;5064305;28;20322;-58
2022/04/06 10:40:06;;;;;;;23.00;18.00;;;7.00;99.90;;;;;;5056466;28;20801;-57
2022/04/06 10:42:55;;;;;;;23.00;17.90;;;7.10;99.90;;;;;;5081950;28;20313;-58
2022/04/06 10:45:43;;;;;;;24.10;18.63;;;7.20;99.90;;;;;;5074851;28;20215;-61
2022/04/06 10:48:32;;;;;;;22.77;17.40;;;7.60;99.90;;;;;;5064123;28;20587;-58
2022/04/06 10:51:29;;;;;;;24.40;17.63;;;7.70;99.90;;;;;;5078960;28;20316;-60
2022/04/06 10:54:43;;;;;;;26.43;18.37;;;7.80;99.90;;;;;;5081232;28;20593;-59
2022/04/06 10:57:57;;;;;;;22.40;17.20;;;7.90;99.90;;;;;;5080107;28;20223;-59
2022/04/06 11:01:16;;;;;;;23.47;17.97;;;7.90;99.90;;;;;;5054994;28;20216;-59
2022/04/06 11:04:10;;;;;;;24.10;18.37;;;8.00;99.90;;;;;;5078206;28;20219;-59
2022/04/06 11:07:02;;;;;;;24.63;18.50;;;8.10;99.90;;;;;;5073747;28;20346;-59
2022/04/06 11:10:10;;;;;;;21.00;17.63;;;8.30;99.90;;;;;;5063309;28;20251;-58
2022/04/06 11:13:04;;;;;;;26.07;18.93;;;8.40;99.90;;;;;;5065984;28;20226;-58
2022/04/06 11:15:53;;;;;;;27.40;19.53;;;8.50;99.90;;;;;;5066033;28;20727;-58
2022/04/06 11:18:46;;;;;;;24.67;18.90;;;8.60;99.90;;;;;;5080370;28;20195;-59
2022/04/06 11:21:35;;;;;;;24.50;18.70;;;8.70;99.90;;;;;;5076174;28;20654;-60
2022/04/06 11:24:27;;;;;;;24.80;20.20;;;8.80;99.90;;;;;;5081852;28;20196;-60
2022/04/06 11:27:27;;;;;;;27.23;20.40;;;9.00;99.90;;;;;;5079154;28;20320;-61
2022/04/06 11:30:19;;;;;;;25.53;19.63;;;9.00;99.90;;;;;;5061912;28;20275;-61
2022/04/06 11:33:08;;;;;;;29.10;20.77;;;9.00;99.90;;;;;;5075110;28;20225;-64
2022/04/06 11:35:56;;;;;;;28.17;21.13;;;9.00;99.90;;;;;;5073367;28;20210;-62
2022/04/06 11:38:50;;;;;;;27.07;21.40;;;9.20;99.90;;;;;;5075926;28;20229;-61
2022/04/06 11:41:42;;;;;;;28.80;21.33;;;9.30;99.90;;;;;;5073146;28;20254;-58
2022/04/06 11:44:32;;;;;;;29.17;21.83;;;9.50;99.90;;;;;;5069820;28;20218;-59
2022/04/06 11:47:32;;;;;;;26.97;21.37;;;9.70;99.90;;;;;;5068260;28;20222;-60
2022/04/06 11:50:22;;;;;;;32.37;22.83;;;9.70;99.90;;;;;;5051910;28;20853;-59
2022/04/06 11:53:15;;;;;;;30.10;22.97;;;9.60;99.90;;;;;;5066909;28;20219;-58
2022/04/06 11:56:05;;;;;;;28.27;22.37;;;9.60;99.90;;;;;;5066757;28;20391;-60
2022/04/06 11:58:57;;;;;;;31.67;22.77;;;9.60;99.90;;;;;;5064027;28;20245;-60
2022/04/06 12:01:47;;;;;;;33.17;23.93;;;9.70;99.90;;;;;;5063944;28;20225;-60
2022/04/06 12:04:37;;;;;;;37.53;24.53;;;9.80;99.90;;;;;;5058118;28;20680;-59
2022/04/06 12:07:25;;;;;;;33.33;23.02;;;9.80;99.90;;;;;;5058008;28;20235;-60
2022/04/06 12:10:15;;;;;;;30.10;23.20;;;10.00;99.90;;;;;;5050088;28;20220;-62
2022/04/06 12:13:05;;;;;;;25.93;21.67;;;10.10;99.90;;;;;;5067209;28;21603;-69
2022/04/06 12:15:55;;;;;;;26.37;21.70;;;10.30;99.90;;;;;;5065558;28;20228;-61
2022/04/06 12:18:44;;;;;;;30.38;22.95;;;10.40;99.90;;;;;;5058782;28;20220;-60
2022/04/06 12:21:41;;;;;;;20.53;17.70;;;10.60;99.90;;;;;;5058790;28;20227;-61
2022/04/06 14:27:40;;;;;;;18.15;10.50;;;11.90;99.90;;;;;;4976251;28;20608;-60
2022/04/06 14:30:29;;;;;;;12.57;8.48;;;11.90;99.90;;;;;;4971379;28;20231;-59
2022/04/06 14:33:19;;;;;;;12.65;9.50;;;11.90;99.90;;;;;;4976292;28;20601;-59
2022/04/06 14:36:08;;;;;;;15.75;9.63;;;11.90;99.90;;;;;;4972657;28;20223;-61
2022/04/06 14:38:57;;;;;;;15.05;9.60;;;11.90;99.90;;;;;;4975216;28;20237;-60
2022/04/06 14:41:46;;;;;;;13.38;8.00;;;11.90;99.90;;;;;;4993861;28;20214;-60
2022/04/06 14:44:36;;;;;;;11.65;9.23;;;11.90;99.90;;;;;;4993092;28;20244;-59
2022/04/06 14:47:26;;;;;;;13.57;8.95;;;11.90;99.90;;;;;;4994724;28;20218;-58
2022/04/06 14:50:14;;;;;;;13.90;9.18;;;12.00;99.90;;;;;;4998792;28;20237;-59
2022/04/06 14:53:03;;;;;;;13.07;9.52;;;12.00;99.90;;;;;;4995755;28;20245;-59
2022/04/06 14:55:52;;;;;;;11.70;8.55;;;12.00;99.90;;;;;;4996041;28;20708;-58
2022/04/06 14:58:44;;;;;;;14.88;8.60;;;12.10;99.90;;;;;;4991302;28;20726;-58
2022/04/06 15:01:34;;;;;;;14.70;10.05;;;12.10;99.90;;;;;;4992623;28;20237;-59
2022/04/06 15:04:23;;;;;;;12.13;9.10;;;12.10;99.90;;;;;;5015378;28;20887;-58
2022/04/06 15:07:17;;;;;;;12.15;8.63;;;12.10;99.90;;;;;;4993601;28;20254;-60
2022/04/06 15:10:06;;;;;;;12.50;8.75;;;12.20;99.90;;;;;;4994849;28;20274;-59
2022/04/06 15:12:58;;;;;;;12.27;8.27;;;12.20;99.90;;;;;;4997725;28;20376;-60
2022/04/06 15:15:47;;;;;;;12.38;9.48;;;12.30;99.90;;;;;;5005963;28;20241;-58
2022/04/06 15:18:37;;;;;;;11.20;8.95;;;12.30;99.90;;;;;;4996567;28;20234;-61
2022/04/06 15:21:26;;;;;;;12.95;9.65;;;12.30;99.90;;;;;;4990564;28;20234;-61
2022/04/06 15:24:16;;;;;;;12.05;8.80;;;12.30;99.90;;;;;;4991695;28;20245;-59
2022/04/06 15:27:05;;;;;;;11.15;8.27;;;12.30;99.90;;;;;;5008575;28;20301;-61
2022/04/06 15:29:53;;;;;;;12.93;8.73;;;12.30;99.90;;;;;;5000249;28;20584;-60
2022/04/06 15:32:43;;;;;;;12.05;7.95;;;12.40;99.90;;;;;;4991969;28;20222;-60
2022/04/06 15:38:40;;;;;;;12.48;8.10;;;12.40;99.90;;;;;;5005564;28;20225;-59
2022/04/06 15:41:28;;;;;;;11.30;8.30;;;12.40;99.90;;;;;;5001520;28;20265;-59
2022/04/06 15:44:17;;;;;;;15.07;8.30;;;12.40;99.90;;;;;;5001790;28;20230;-59
2022/04/06 15:47:06;;;;;;;12.55;8.65;;;12.30;99.90;;;;;;5005305;28;20350;-59
2022/04/06 15:49:59;;;;;;;11.15;7.35;;;12.30;99.90;;;;;;4996593;28;20288;-61
2022/04/06 15:52:49;;;;;;;10.10;7.57;;;12.40;99.90;;;;;;5003380;28;20223;-60
2022/04/06 15:55:38;;;;;;;11.32;7.85;;;12.30;99.90;;;;;;4999360;28;20234;-60
2022/04/06 15:58:26;;;;;;;14.63;8.00;;;12.30;99.90;;;;;;4983031;28;20218;-60
2022/04/06 16:01:15;;;;;;;10.50;7.10;;;12.30;99.90;;;;;;4995309;28;20407;-60
2022/04/06 16:04:04;;;;;;;10.68;6.72;;;12.30;99.90;;;;;;5000029;28;20234;-59
2022/04/06 16:06:52;;;;;;;12.13;6.78;;;12.30;99.90;;;;;;4997820;28;20546;-60
2022/04/06 16:09:47;;;;;;;10.10;6.63;;;12.30;99.90;;;;;;5000579;28;20222;-58
2022/04/06 16:12:36;;;;;;;7.68;6.30;;;12.30;99.90;;;;;;4997330;28;20229;-60
2022/04/06 16:15:25;;;;;;;7.85;5.97;;;12.30;99.90;;;;;;4999673;28;20260;-60
2022/04/06 16:18:14;;;;;;;10.55;5.97;;;12.20;99.90;;;;;;4979323;28;20233;-59
2022/04/06 16:21:02;;;;;;;9.52;6.22;;;12.20;99.90;;;;;;4983202;28;20240;-60
2022/04/06 16:23:52;;;;;;;8.85;6.28;;;12.20;99.90;;;;;;4996780;28;20230;-59
2022/04/06 16:26:42;;;;;;;10.77;6.30;;;12.20;99.90;;;;;;4999032;28;20230;-60
2022/04/06 16:29:32;;;;;;;8.23;5.63;;;12.20;99.90;;;;;;4999979;28;20226;-58
2022/04/06 16:32:20;;;;;;;9.07;6.05;;;12.10;99.90;;;;;;5000065;28;20226;-60
2022/04/06 16:35:10;;;;;;;9.48;6.03;;;12.10;99.90;;;;;;5001312;28;20234;-60
2022/04/06 16:37:59;;;;;;;10.27;6.40;;;12.10;99.90;;;;;;5004381;28;20214;-60
2022/04/06 16:40:48;;;;;;;9.13;7.57;;;12.00;99.90;;;;;;5003160;28;20234;-57
2022/04/06 16:43:39;;;;;;;9.00;6.63;;;12.00;99.90;;;;;;5009654;28;20230;-58
2022/04/06 16:46:29;;;;;;;10.18;7.18;;;12.00;99.90;;;;;;5003905;28;20320;-60
2022/04/06 16:49:18;;;;;;;9.10;7.88;;;12.00;99.90;;;;;;5002958;28;20237;-59
2022/04/06 16:55:14;;;;;;;11.85;8.32;;;11.90;99.90;;;;;;4985273;28;20233;-60